Motte Rimrock Reserve, California Weather observations

Data are for 10 minute period ending at time listed.
 Day   Time   Solar   Ave.   Ave.  Ave.  Vector  Max.   Baro.   Total    
  of    of     Rad.   Air    Rel.  Wind   Wind   Wind  Press.  Precip.   
Year   Day            Temp.  Hum.  Speed  Dir.   Gust                    
2017   (PST)  Kw/m2    F      %     mph   deg.    mph    mb.     in.     
-------------------------------------------------------------------------
 293    0:00   0.00   57.4    90    3.1   176     3.9   945.8    0.00 
 293    0:10   0.00   57.2    91    3.5   211     4.1   946.0    0.00 
 293    0:20   0.00   57.2    92    3.1   213     4.1   946.0    0.00 
 293    0:30   0.00   57.2    92    3.2   226     3.9   946.1    0.00 
 293    0:40   0.00   57.3    91    2.1   219     3.4   946.0    0.00 
 293    0:50   0.00   57.4    90    2.0   150     2.7   945.8    0.00 
 293    1:00   0.00   57.7    90    3.7   119     6.2   945.5    0.00 
 293    1:10   0.00   57.5    90    4.8   139     6.1   945.6    0.00 
 293    1:20   0.00   57.2    91    4.8   149     6.1   945.6    0.00 
 293    1:30   0.00   56.9    92    5.9   167     7.7   945.6    0.00 
 293    1:40   0.00   56.9    92    5.2   191     6.5   945.7    0.00 
 293    1:50   0.00   56.7    92    4.0   212     5.1   945.7    0.00 
 293    2:00   0.00   56.5    91    3.6   219     4.5   945.6    0.00 
 293    2:10   0.00   56.6    90    3.5   206     3.9   945.4    0.00 
 293    2:20   0.00   56.5    90    3.8   194     4.5   945.3    0.00 
 293    2:30   0.00   56.3    90    3.9   189     5.6   945.2    0.00 
 293    2:40   0.00   55.8    90    4.2   175     5.8   945.0    0.00 
 293    2:50   0.00   56.0    91    2.0   184     3.7   945.1    0.00 
 293    3:00   0.00   56.2    90    1.8   153     3.6   945.1    0.00 
 293    3:10   0.00   55.9    90    3.1   154     5.6   945.0    0.00 
 293    3:20   0.00   55.5    90    5.6   172     6.7   944.9    0.00 
 293    3:30   0.00   55.2    91    5.9   173     6.9   944.8    0.00 
 293    3:40   0.00   55.1    91    4.6   165     5.3   944.8    0.00 
 293    3:50   0.00   55.1    91    5.2   170     7.1   944.8    0.00 
 293    4:00   0.00   55.0    92    5.3   169     6.7   944.9    0.00 
 293    4:10   0.00   55.2    92    4.0   171     5.1   945.0    0.00 
 293    4:20   0.00   55.6    92    4.4   194     6.1   945.1    0.00 
 293    4:30   0.00   55.7    92    5.6   202     7.2   945.2    0.00 
 293    4:40   0.00   55.8    93    6.1   196     8.1   945.2    0.00 
 293    4:50   0.00   56.0    92    5.8   203     7.0   945.2    0.00 
 293    5:00   0.00   56.2    91    4.3   212     6.3   945.4    0.00 
 293    5:10   0.00   56.4    90    3.3   185     4.1   945.3    0.00 
 293    5:20   0.00   56.1    89    2.8   181     4.0   945.5    0.00 
 293    5:30   0.00   56.6    88    2.3   190     3.2   945.6    0.00 
 293    5:40   0.00   55.9    88    4.9   171     6.9   945.5    0.00 
 293    5:50   0.00   55.3    88    6.1   194     7.7   945.6    0.00 
 293    6:00   0.00   55.5    86    5.8   214     6.9   945.7    0.00 
 293    6:10   0.00   55.5    86    4.3   214     5.4   945.7    0.00 
 293    6:20   0.00   55.5    86    4.1   217     5.0   945.7    0.00 
 293    6:30   0.01   55.5    86    4.0   237     5.0   945.7    0.00 
 293    6:40   0.03   55.7    85    3.8   261     4.6   945.8    0.00 
 293    6:50   0.04   55.5    86    5.1   255     6.0   945.8    0.00 
 293    7:00   0.05   56.6    84    4.7   256     5.7   945.9    0.00 
 293    7:10   0.07   57.5    82    4.4   252     5.7   946.0    0.00 
 293    7:20   0.10   58.1    80    3.3   215     4.7   946.1    0.00 
 293    7:30   0.11   58.7    79    3.0   212     5.0   946.3    0.00 
 293    7:40   0.10   58.8    78    4.9   194     6.4   946.2    0.00 
 293    7:50   0.13   59.3    76    4.8   211     6.8   946.3    0.00 
 293    8:00   0.21   60.0    74    4.6   219     6.4   946.6    0.00 
 293    8:10   0.26   61.3    71    4.4   205     8.0   946.8    0.00 
 293    8:20   0.47   62.9    66    4.7   183     8.3   946.8    0.00 
 293    8:30   0.50   63.3    64    6.5   179    10.4   946.7    0.00 
 293    8:40   0.51   64.2    61    7.3   175    12.5   946.8    0.00 
 293    8:50   0.50   64.1    60    9.4   156    12.6   946.7    0.00 
 293    9:00   0.53   64.5    59    9.6   171    12.7   946.6    0.00 
 293    9:10   0.56   64.4    59   10.7   172    14.9   946.5    0.00 
 293    9:20   0.60   64.6    58    9.2   183    12.7   946.7    0.00 
 293    9:30   0.52   64.7    57    8.6   189    12.9   946.7    0.00 
 293    9:40   0.68   65.2    56    8.5   182    12.9   946.6    0.00 
 293    9:50   0.63   65.6    55    9.1   183    13.0   946.6    0.00 
 293   10:00   0.52   65.9    54    8.2   196    13.1   946.8    0.00 
 293   10:10   0.36   66.1    53    8.2   194    12.7   946.8    0.00 
 293   10:20   0.22   65.5    55    7.8   187    13.4   946.8    0.00 
 293   10:30   0.27   65.2    56   10.3   201    16.3   946.8    0.00 
 293   10:40   0.21   64.9    57   10.3   199    15.6   946.7    0.00 
 293   10:50   0.25   64.8    57   11.0   184    15.2   946.6    0.00 
 293   11:00   0.35   65.5    55   10.0   201    15.4   946.5    0.00 
 293   11:10   0.43   67.0    52   11.5   203    15.6   946.5    0.00 
 293   11:20   0.37   67.3    51   11.2   218    16.4   946.5    0.00 
 293   11:30   0.23   66.7    53    7.8   219    13.4   946.5    0.00 
 293   11:40   0.20   66.2    54    9.2   234    18.3   946.2    0.00 
 293   11:50   0.16   66.7    53    3.1   234     9.7   946.2    0.00 
 293   12:00   0.23   66.4    55    9.4   214    15.5   946.1    0.00 
 293   12:10   0.55   68.4    51   11.3   227    16.7   945.8    0.00 
 293   12:20   0.60   68.0    52   12.1   214    17.8   945.7    0.00 
 293   12:30   0.55   68.3    52   12.7   204    18.2   945.7    0.00 
 293   12:40   0.42   67.2    55   14.7   188    19.4   945.6    0.00 
 293   12:50   0.52   67.7    54   12.4   212    19.8   945.6    0.00 
 293   13:00   0.89   70.4    47   13.7   213    19.4   945.3    0.00 
 293   13:10   0.57   68.9    50   14.7   207    20.8   945.2    0.00 
 293   13:20   0.43   68.3    51   12.1   220    18.8   945.3    0.00 
 293   13:30   0.36   69.1    46   10.6   250    23.4   945.3    0.00 
 293   13:40   0.22   68.2    48   10.1   223    18.2   945.4    0.00 
 293   13:50   0.23   67.6    49   10.1   253    15.3   945.5    0.00 
 293   14:00   0.23   67.8    49   11.9   236    17.8   945.5    0.00 
 293   14:10   0.66   69.6    45   10.7   239    18.9   945.5    0.00 
 293   14:20   0.38   68.6    47   12.2   227    17.9   945.3    0.00 
 293   14:30   0.18   66.3    53   13.8   200    20.2   945.2    0.00 
 293   14:40   0.16   65.9    56   14.8   199    21.4   945.2    0.00 
 293   14:50   0.13   65.4    56   12.9   209    19.2   945.2    0.00 
 293   15:00   0.10   65.2    56   12.5   216    17.3   945.1    0.00 
 293   15:10   0.11   65.0    56   11.6   216    16.1   945.1    0.00 
 293   15:20   0.31   66.8    52   10.3   209    15.1   944.9    0.00 
 293   15:30   0.29   67.3    51    9.7   222    13.5   944.9    0.00 
 293   15:40   0.26   67.1    51    9.9   226    13.1   944.7    0.00 
 293   15:50   0.23   67.0    51    8.3   210    12.6   944.7    0.00 
 293   16:00   0.20   66.7    51    9.2   215    12.1   944.7    0.00 
 293   16:10   0.17   66.6    52    8.6   236    11.5   944.8    0.00 
 293   16:20   0.15   66.3    53    8.0   226    10.6   944.7    0.00 
 293   16:30   0.09   65.9    53    8.0   227    11.2   944.8    0.00 
 293   16:40   0.04   65.0    54    7.7   228    10.7   944.9    0.00 
 293   16:50   0.05   65.2    54    6.8   228    10.0   944.9    0.00 
 293   17:00   0.03   64.7    56    7.7   218    10.5   944.7    0.00 
 293   17:10   0.01   63.8    58    6.6   226     9.4   944.9    0.00 
 293   17:20   0.01   63.4    59    7.5   237    11.1   944.9    0.00 
 293   17:30   0.01   62.9    60    6.3   253     8.6   944.9    0.00 
 293   17:40   0.00   62.3    62    3.9   255     5.5   945.1    0.00 
 293   17:50   0.00   61.6    63    4.2   249     6.5   945.1    0.00 
 293   18:00   0.00   60.9    65    5.6   240     7.7   945.1    0.00 
 293   18:10   0.00   60.4    66    5.6   244     7.3   945.1    0.00 
 293   18:20   0.00   60.0    66    4.7   235     6.3   945.0    0.00 
 293   18:30   0.00   59.1    68    3.2   168     4.7   945.2    0.00 
 293   18:40   0.00   58.7    70    2.4   159     4.7   945.3    0.00 
 293   18:50   0.00   58.5    71    1.4   171     3.4   945.4    0.00 
 293   19:00   0.00   58.5    72    2.0   185     3.9   945.4    0.00 
 293   19:10   0.00   58.0    73    2.6   156     3.8   945.2    0.00 
 293   19:20   0.00   57.8    75    1.4   186     2.6   945.3    0.00 
 293   19:30   0.00   57.8    74    1.7   118     4.2   945.4    0.00 
 293   19:40   0.00   57.2    76    4.9   125     6.8   945.4    0.00 
 293   19:50   0.00   56.9    78    4.6   117     6.4   945.4    0.00 
 293   20:00   0.00   56.6    79    5.2   126     6.7   945.6    0.00 
 293   20:10   0.00   56.5    80    5.5   131     6.4   945.7    0.00 
 293   20:20   0.00   56.2    81    5.8   132     7.3   945.6    0.00 
 293   20:30   0.00   56.0    82    4.5   129     6.2   945.7    0.00 
 293   20:40   0.00   56.2    82    4.6   124     5.8   945.8    0.00 
 293   20:50   0.00   56.5    81    5.5   133     8.3   945.9    0.00 
 293   21:00   0.00   56.5    81    6.4   131     7.8   946.0    0.00 
 293   21:10   0.00   56.5    80    5.7   132     7.5   946.0    0.00 
 293   21:20   0.00   56.5    80    4.8   131     6.0   946.3    0.00 
 293   21:30   0.00   56.6    79    4.1   143     5.5   946.5    0.00 
 293   21:40   0.00   56.6    79    3.4   148     5.0   946.6    0.00 
 293   21:50   0.00   56.6    79    5.0   130     5.9   946.6    0.00 
 293   22:00   0.00   56.5    78    5.6   139     7.2   946.6    0.00 
 293   22:10   0.00   56.2    79    5.2   166     6.6   946.6    0.00 
 293   22:20   0.00   55.5    80    6.0   174     8.0   946.5    0.00 
 293   22:30   0.00   55.1    81    6.0   184     7.7   946.6    0.00 
 293   22:40   0.00   55.1    81    5.0   169     6.9   946.6    0.00 
 293   22:50   0.00   55.3    80    4.2   169     5.8   946.8    0.00 
 293   23:00   0.00   55.4    80    5.7   171     8.3   946.7    0.00 
 293   23:10   0.00   55.3    80    5.7   178     7.2   947.0    0.00 
 293   23:20   0.00   55.4    80    5.1   154     6.4   947.1    0.00 
 293   23:30   0.00   55.4    80    5.9   155     7.6   947.0    0.00 
 293   23:40   0.00   55.2    81    5.4   160     7.2   947.1    0.00 
 293   23:50   0.00   55.1    83    5.3   167     6.6   947.2    0.00 

Return to Motte Rimrock Reserve graphs page.


Western Regional Climate Center,wrcc@dri.edu